RYR3LA LHBP-LCPH
Flight info
| Callsign | RYR3LA |
|---|---|
| Flight time | 2h 30m |
| Altitude | 37000 |
| Route | FAHAZ DCT KEROP DCT OKLOP DCT NISVA Y505 NIKTI UN127 RIKSO UP14 ZAFLE DCT BENEM UN127 EXELA UM601 EVENO M601 DASNI/N0425F330 M32 TOBAL |
| Aircraft | B738/M-SDE2E3FGHIRWXY/LB1 |
Departure
| Time | 2026-04-26 16:23 |
|---|---|
| Airport | Budapest Liszt Ferenc International Airport (LHBP) |
Arrival
| Time | 2026-04-26 18:53 |
|---|---|
| Airport | Paphos International Airport (LCPH) |
| Time | Latitude | Longitude | Altitude | Speed | Heading |
|---|---|---|---|---|---|
| 2026-04-26 15:44 | 47.43450 | 19.26573 | 457 ft | 0 kts | 222° |
| 2026-04-26 16:11 | 47.43457 | 19.26581 | 457 ft | 2 kts | 219° |
| 2026-04-26 16:11 | 47.43469 | 19.26598 | 457 ft | 2 kts | 225° |
| 2026-04-26 16:11 | 47.43480 | 19.26617 | 455 ft | 2 kts | 235° |
| 2026-04-26 16:12 | 47.43485 | 19.26639 | 453 ft | 2 kts | 293° |
| 2026-04-26 16:12 | 47.43480 | 19.26652 | 454 ft | 1 kts | 310° |
| 2026-04-26 16:12 | 47.43479 | 19.26653 | 454 ft | 0 kts | 310° |
| 2026-04-26 16:15 | 47.43484 | 19.26644 | 453 ft | 4 kts | 310° |
| 2026-04-26 16:16 | 47.43568 | 19.26507 | 457 ft | 10 kts | 313° |
| 2026-04-26 16:16 | 47.43614 | 19.26434 | 457 ft | 10 kts | 313° |
| 2026-04-26 16:16 | 47.43662 | 19.26354 | 457 ft | 11 kts | 305° |
| 2026-04-26 16:16 | 47.43678 | 19.26239 | 456 ft | 12 kts | 268° |
| 2026-04-26 16:17 | 47.43675 | 19.26120 | 456 ft | 11 kts | 268° |
| 2026-04-26 16:17 | 47.43708 | 19.26017 | 456 ft | 11 kts | 311° |
| 2026-04-26 16:17 | 47.43731 | 19.25919 | 456 ft | 11 kts | 247° |
| 2026-04-26 16:17 | 47.43680 | 19.25838 | 456 ft | 11 kts | 223° |
| 2026-04-26 16:18 | 47.43624 | 19.25762 | 456 ft | 12 kts | 221° |
| 2026-04-26 16:18 | 47.43449 | 19.25527 | 456 ft | 18 kts | 223° |
| 2026-04-26 16:19 | 47.43265 | 19.25281 | 455 ft | 17 kts | 222° |
| 2026-04-26 16:19 | 47.43183 | 19.25171 | 454 ft | 11 kts | 222° |
| 2026-04-26 16:19 | 47.43156 | 19.25135 | 455 ft | 0 kts | 222° |
| 2026-04-26 16:20 | 47.43088 | 19.25044 | 456 ft | 13 kts | 222° |
| 2026-04-26 16:20 | 47.43078 | 19.24979 | 456 ft | 6 kts | 301° |
| 2026-04-26 16:21 | 47.43084 | 19.24969 | 456 ft | 0 kts | 308° |
| 2026-04-26 16:22 | 47.43152 | 19.24856 | 455 ft | 46 kts | 313° |
| 2026-04-26 16:22 | 47.43541 | 19.24232 | 451 ft | 116 kts | 313° |
| 2026-04-26 16:22 | 47.44200 | 19.23182 | 692 ft | 150 kts | 314° |
| 2026-04-26 16:23 | 47.44974 | 19.21985 | 1340 ft | 166 kts | 315° |
| 2026-04-26 16:23 | 47.45713 | 19.20776 | 2486 ft | 155 kts | 313° |
| 2026-04-26 16:23 | 47.46453 | 19.19564 | 3271 ft | 167 kts | 313° |
| 2026-04-26 16:23 | 47.47297 | 19.18190 | 3613 ft | 196 kts | 313° |
| 2026-04-26 16:24 | 47.48196 | 19.16596 | 4210 ft | 207 kts | 303° |
| 2026-04-26 16:24 | 47.48762 | 19.14557 | 4803 ft | 226 kts | 287° |
| 2026-04-26 16:24 | 47.48845 | 19.12097 | 5162 ft | 258 kts | 265° |
| 2026-04-26 16:24 | 47.48197 | 19.09562 | 5974 ft | 274 kts | 239° |
| 2026-04-26 16:25 | 47.46760 | 19.07644 | 6868 ft | 286 kts | 212° |
| 2026-04-26 16:25 | 47.44935 | 19.06409 | 7750 ft | 291 kts | 206° |
| 2026-04-26 16:25 | 47.43058 | 19.05242 | 8632 ft | 294 kts | 207° |
| 2026-04-26 16:25 | 47.41166 | 19.04031 | 9484 ft | 298 kts | 208° |
| 2026-04-26 16:26 | 47.39267 | 19.02760 | 10324 ft | 301 kts | 209° |
| 2026-04-26 16:26 | 47.37997 | 19.01886 | 10681 ft | 312 kts | 209° |
| 2026-04-26 16:26 | 47.35229 | 18.99951 | 11041 ft | 342 kts | 209° |
| 2026-04-26 16:26 | 47.33053 | 18.98433 | 11726 ft | 348 kts | 209° |
| 2026-04-26 16:27 | 47.30848 | 18.96919 | 12598 ft | 350 kts | 208° |
| 2026-04-26 16:27 | 47.28633 | 18.95407 | 13438 ft | 353 kts | 208° |
| 2026-04-26 16:27 | 47.26392 | 18.93880 | 14222 ft | 356 kts | 208° |
| 2026-04-26 16:27 | 47.24130 | 18.92337 | 14913 ft | 360 kts | 209° |
| 2026-04-26 16:28 | 47.21869 | 18.90794 | 15601 ft | 364 kts | 209° |
| 2026-04-26 16:28 | 47.19560 | 18.89220 | 16305 ft | 368 kts | 209° |
| 2026-04-26 16:28 | 47.17225 | 18.87628 | 16994 ft | 372 kts | 209° |
| 2026-04-26 16:28 | 47.14835 | 18.86001 | 17687 ft | 376 kts | 209° |
| 2026-04-26 16:29 | 47.12419 | 18.84596 | 18354 ft | 385 kts | 197° |
| 2026-04-26 16:29 | 47.09715 | 18.84409 | 18942 ft | 398 kts | 174° |
| 2026-04-26 16:29 | 47.07066 | 18.85683 | 19565 ft | 406 kts | 152° |
| 2026-04-26 16:29 | 47.04711 | 18.88001 | 20186 ft | 410 kts | 146° |
| 2026-04-26 16:30 | 47.02402 | 18.90494 | 20733 ft | 414 kts | 144° |
| 2026-04-26 16:30 | 47.00077 | 18.93029 | 21271 ft | 419 kts | 145° |
| 2026-04-26 16:30 | 46.97721 | 18.95566 | 21837 ft | 422 kts | 146° |
| 2026-04-26 16:30 | 46.95333 | 18.98098 | 22392 ft | 425 kts | 146° |
| 2026-04-26 16:31 | 46.92920 | 19.00628 | 22949 ft | 428 kts | 146° |
| 2026-04-26 16:31 | 46.90488 | 19.03165 | 23499 ft | 432 kts | 146° |
| 2026-04-26 16:31 | 46.88024 | 19.05718 | 23988 ft | 435 kts | 147° |
| 2026-04-26 16:31 | 46.85504 | 19.08164 | 24436 ft | 437 kts | 149° |
| 2026-04-26 16:32 | 46.82935 | 19.10544 | 24921 ft | 438 kts | 150° |
| 2026-04-26 16:32 | 46.81220 | 19.12110 | 25232 ft | 439 kts | 150° |
| 2026-04-26 16:32 | 46.77772 | 19.15252 | 25816 ft | 443 kts | 150° |
| 2026-04-26 16:32 | 46.76004 | 19.16870 | 26103 ft | 445 kts | 150° |
| 2026-04-26 16:33 | 46.72528 | 19.20068 | 26668 ft | 448 kts | 150° |
| 2026-04-26 16:33 | 46.70778 | 19.21683 | 26949 ft | 449 kts | 150° |
| 2026-04-26 16:33 | 46.68134 | 19.24130 | 27381 ft | 451 kts | 150° |
| 2026-04-26 16:33 | 46.64574 | 19.27425 | 27917 ft | 455 kts | 150° |
| 2026-04-26 16:34 | 46.62808 | 19.29058 | 28193 ft | 456 kts | 150° |
| 2026-04-26 16:34 | 46.60123 | 19.31539 | 28599 ft | 458 kts | 150° |
| 2026-04-26 16:34 | 46.57429 | 19.34025 | 28984 ft | 460 kts | 150° |
| 2026-04-26 16:34 | 46.54719 | 19.36523 | 29367 ft | 462 kts | 150° |
| 2026-04-26 16:35 | 46.51998 | 19.39027 | 29728 ft | 465 kts | 151° |
| 2026-04-26 16:35 | 46.49257 | 19.41546 | 30085 ft | 467 kts | 151° |
| 2026-04-26 16:35 | 46.46503 | 19.44074 | 30397 ft | 469 kts | 151° |
| 2026-04-26 16:35 | 46.43734 | 19.46613 | 30641 ft | 471 kts | 151° |
| 2026-04-26 16:36 | 46.40963 | 19.49151 | 30873 ft | 472 kts | 151° |
| 2026-04-26 16:36 | 46.38191 | 19.51688 | 31113 ft | 470 kts | 151° |
| 2026-04-26 16:36 | 46.32637 | 19.56760 | 31138 ft | 470 kts | 151° |
| 2026-04-26 16:37 | 46.27125 | 19.61782 | 31149 ft | 468 kts | 151° |
| 2026-04-26 16:37 | 46.21623 | 19.66783 | 31146 ft | 467 kts | 151° |
| 2026-04-26 16:38 | 46.16102 | 19.71738 | 31144 ft | 466 kts | 152° |
| 2026-04-26 16:38 | 46.10518 | 19.76480 | 31150 ft | 465 kts | 153° |
| 2026-04-26 16:39 | 46.04916 | 19.81172 | 31160 ft | 469 kts | 153° |
| 2026-04-26 16:39 | 46.02081 | 19.83550 | 31287 ft | 474 kts | 153° |
| 2026-04-26 16:39 | 45.99267 | 19.85917 | 31608 ft | 474 kts | 153° |
| 2026-04-26 16:40 | 45.96426 | 19.88312 | 32040 ft | 472 kts | 153° |
| 2026-04-26 16:40 | 45.93564 | 19.90725 | 32454 ft | 470 kts | 153° |
| 2026-04-26 16:40 | 45.90776 | 19.93075 | 32769 ft | 471 kts | 153° |
| 2026-04-26 16:40 | 45.87946 | 19.95456 | 33060 ft | 472 kts | 153° |
| 2026-04-26 16:41 | 45.85079 | 19.97865 | 33407 ft | 471 kts | 153° |
| 2026-04-26 16:41 | 45.82253 | 20.00237 | 33772 ft | 470 kts | 153° |
| 2026-04-26 16:41 | 45.79470 | 20.02569 | 34097 ft | 470 kts | 153° |
| 2026-04-26 16:41 | 45.76648 | 20.04932 | 34367 ft | 470 kts | 153° |
| 2026-04-26 16:42 | 45.73824 | 20.07293 | 34652 ft | 470 kts | 153° |
| 2026-04-26 16:42 | 45.71006 | 20.09647 | 34936 ft | 469 kts | 153° |
| 2026-04-26 16:42 | 45.68192 | 20.11994 | 35208 ft | 468 kts | 153° |
| 2026-04-26 16:42 | 45.65372 | 20.14343 | 35466 ft | 468 kts | 153° |
| 2026-04-26 16:43 | 45.62561 | 20.16682 | 35720 ft | 468 kts | 153° |
| 2026-04-26 16:43 | 45.59747 | 20.19021 | 35963 ft | 468 kts | 153° |
| 2026-04-26 16:43 | 45.56931 | 20.21358 | 36221 ft | 467 kts | 153° |
| 2026-04-26 16:43 | 45.54118 | 20.23691 | 36498 ft | 466 kts | 153° |
| 2026-04-26 16:44 | 45.51316 | 20.26012 | 36766 ft | 466 kts | 153° |
| 2026-04-26 16:44 | 45.48514 | 20.28331 | 37003 ft | 465 kts | 153° |
| 2026-04-26 16:44 | 45.45784 | 20.30807 | 37141 ft | 468 kts | 147° |
| 2026-04-26 16:44 | 45.43123 | 20.33537 | 37129 ft | 472 kts | 146° |
| 2026-04-26 16:45 | 45.37894 | 20.39176 | 37124 ft | 470 kts | 145° |
| 2026-04-26 16:45 | 45.32705 | 20.44762 | 37124 ft | 466 kts | 145° |
| 2026-04-26 16:46 | 45.27511 | 20.50255 | 37124 ft | 464 kts | 146° |
| 2026-04-26 16:46 | 45.22332 | 20.55676 | 37134 ft | 462 kts | 146° |
| 2026-04-26 16:47 | 45.17149 | 20.61080 | 37134 ft | 462 kts | 146° |
| 2026-04-26 16:47 | 45.11963 | 20.66475 | 37129 ft | 464 kts | 146° |
| 2026-04-26 16:48 | 45.06750 | 20.71889 | 37127 ft | 465 kts | 146° |
| 2026-04-26 16:48 | 45.01514 | 20.77315 | 37130 ft | 468 kts | 146° |
| 2026-04-26 16:49 | 44.96251 | 20.82758 | 37124 ft | 470 kts | 146° |
| 2026-04-26 16:49 | 44.90967 | 20.88209 | 37120 ft | 471 kts | 146° |
| 2026-04-26 16:50 | 44.85661 | 20.93670 | 37117 ft | 472 kts | 146° |
| 2026-04-26 16:50 | 44.80350 | 20.99124 | 37114 ft | 473 kts | 146° |
| 2026-04-26 16:51 | 44.75070 | 21.04533 | 37112 ft | 472 kts | 146° |
| 2026-04-26 16:51 | 44.69762 | 21.09958 | 37114 ft | 471 kts | 145° |
| 2026-04-26 16:52 | 44.65319 | 21.14490 | 37105 ft | 470 kts | 145° |
| 2026-04-26 16:52 | 44.59169 | 21.20747 | 37111 ft | 469 kts | 145° |
| 2026-04-26 16:53 | 44.53897 | 21.26099 | 37098 ft | 468 kts | 145° |
| 2026-04-26 16:53 | 44.48628 | 21.31435 | 37100 ft | 466 kts | 145° |
| 2026-04-26 16:54 | 44.43369 | 21.36748 | 37105 ft | 465 kts | 145° |
| 2026-04-26 16:54 | 44.38114 | 21.42045 | 37102 ft | 465 kts | 145° |
| 2026-04-26 16:55 | 44.32897 | 21.47293 | 37099 ft | 465 kts | 145° |
| 2026-04-26 16:55 | 44.27642 | 21.52567 | 37107 ft | 465 kts | 145° |
| 2026-04-26 16:56 | 44.19772 | 21.60443 | 37096 ft | 465 kts | 145° |
| 2026-04-26 16:57 | 44.14508 | 21.65696 | 37098 ft | 466 kts | 145° |
| 2026-04-26 16:57 | 44.06600 | 21.73567 | 37095 ft | 466 kts | 145° |
| 2026-04-26 16:58 | 44.02212 | 21.77922 | 37096 ft | 466 kts | 145° |
| 2026-04-26 16:59 | 43.93398 | 21.86646 | 37091 ft | 466 kts | 145° |
| 2026-04-26 17:00 | 43.82829 | 21.97065 | 37091 ft | 466 kts | 144° |
| 2026-04-26 17:00 | 43.74889 | 22.04862 | 37084 ft | 466 kts | 144° |
| 2026-04-26 17:01 | 43.69625 | 22.10016 | 37080 ft | 465 kts | 144° |
| 2026-04-26 17:01 | 43.64337 | 22.15183 | 37078 ft | 464 kts | 144° |
| 2026-04-26 17:02 | 43.59097 | 22.20292 | 37081 ft | 462 kts | 144° |
| 2026-04-26 17:02 | 43.53842 | 22.25405 | 37087 ft | 461 kts | 144° |
| 2026-04-26 17:03 | 43.48600 | 22.30494 | 37082 ft | 461 kts | 144° |
| 2026-04-26 17:03 | 43.43362 | 22.35568 | 37089 ft | 460 kts | 144° |
| 2026-04-26 17:04 | 43.38124 | 22.40631 | 37083 ft | 460 kts | 144° |
| 2026-04-26 17:04 | 43.32881 | 22.45688 | 37084 ft | 461 kts | 144° |
| 2026-04-26 17:05 | 43.27628 | 22.50744 | 37081 ft | 461 kts | 144° |
| 2026-04-26 17:05 | 43.22367 | 22.55810 | 37081 ft | 461 kts | 144° |
| 2026-04-26 17:06 | 43.17146 | 22.60836 | 37077 ft | 462 kts | 144° |
| 2026-04-26 17:06 | 43.11849 | 22.65926 | 37075 ft | 462 kts | 144° |
| 2026-04-26 17:07 | 43.06617 | 22.70942 | 37073 ft | 462 kts | 144° |
| 2026-04-26 17:07 | 43.01349 | 22.75981 | 37076 ft | 462 kts | 144° |
| 2026-04-26 17:08 | 42.96081 | 22.81008 | 37073 ft | 461 kts | 144° |
| 2026-04-26 17:08 | 42.90820 | 22.86019 | 37066 ft | 461 kts | 144° |
| 2026-04-26 17:09 | 42.86450 | 22.90173 | 37069 ft | 460 kts | 144° |
| 2026-04-26 17:09 | 42.80313 | 22.95995 | 37063 ft | 459 kts | 144° |
| 2026-04-26 17:10 | 42.75067 | 23.00959 | 37057 ft | 459 kts | 144° |
| 2026-04-26 17:10 | 42.69836 | 23.05899 | 37053 ft | 458 kts | 144° |
| 2026-04-26 17:11 | 42.64612 | 23.10823 | 37051 ft | 457 kts | 144° |
| 2026-04-26 17:11 | 42.59418 | 23.15707 | 37053 ft | 456 kts | 144° |
| 2026-04-26 17:12 | 42.51599 | 23.23042 | 37049 ft | 455 kts | 144° |
| 2026-04-26 17:13 | 42.43788 | 23.30347 | 37057 ft | 455 kts | 144° |
| 2026-04-26 17:14 | 42.35974 | 23.37632 | 37056 ft | 455 kts | 144° |
| 2026-04-26 17:14 | 42.28150 | 23.44903 | 37050 ft | 455 kts | 144° |
| 2026-04-26 17:15 | 42.20315 | 23.52163 | 37051 ft | 456 kts | 144° |
| 2026-04-26 17:16 | 42.15088 | 23.56995 | 37052 ft | 456 kts | 144° |
| 2026-04-26 17:16 | 42.09853 | 23.61823 | 37044 ft | 456 kts | 144° |
| 2026-04-26 17:17 | 42.04616 | 23.66644 | 37033 ft | 456 kts | 144° |
| 2026-04-26 17:17 | 42.00270 | 23.70636 | 37044 ft | 455 kts | 144° |
| 2026-04-26 17:18 | 41.95035 | 23.75437 | 37025 ft | 456 kts | 144° |
| 2026-04-26 17:18 | 41.89793 | 23.80234 | 37027 ft | 456 kts | 144° |
| 2026-04-26 17:19 | 41.81937 | 23.87406 | 37013 ft | 455 kts | 144° |
| 2026-04-26 17:19 | 41.76690 | 23.92185 | 37003 ft | 455 kts | 144° |
| 2026-04-26 17:20 | 41.72340 | 23.96139 | 37002 ft | 455 kts | 144° |
| 2026-04-26 17:20 | 41.66218 | 24.01692 | 37006 ft | 454 kts | 144° |
| 2026-04-26 17:21 | 41.60979 | 24.06436 | 36999 ft | 454 kts | 144° |
| 2026-04-26 17:21 | 41.55743 | 24.11168 | 37004 ft | 454 kts | 144° |
| 2026-04-26 17:22 | 41.50492 | 24.15883 | 36994 ft | 455 kts | 145° |
| 2026-04-26 17:22 | 41.45265 | 24.20547 | 36982 ft | 455 kts | 145° |
| 2026-04-26 17:23 | 41.40011 | 24.25229 | 36989 ft | 455 kts | 145° |
| 2026-04-26 17:23 | 41.34741 | 24.29920 | 36990 ft | 455 kts | 145° |
| 2026-04-26 17:24 | 41.29476 | 24.34599 | 37001 ft | 455 kts | 145° |
| 2026-04-26 17:24 | 41.24197 | 24.39282 | 36982 ft | 456 kts | 145° |
| 2026-04-26 17:25 | 41.18924 | 24.43873 | 36986 ft | 456 kts | 150° |
| 2026-04-26 17:25 | 41.13196 | 24.47647 | 36988 ft | 457 kts | 154° |
| 2026-04-26 17:26 | 41.07464 | 24.51180 | 36974 ft | 458 kts | 154° |
| 2026-04-26 17:26 | 41.01707 | 24.54813 | 36971 ft | 458 kts | 154° |
| 2026-04-26 17:27 | 40.95918 | 24.58511 | 36959 ft | 458 kts | 154° |
| 2026-04-26 17:27 | 40.90192 | 24.62158 | 36967 ft | 458 kts | 154° |
| 2026-04-26 17:28 | 40.84443 | 24.65810 | 36965 ft | 458 kts | 154° |
| 2026-04-26 17:28 | 40.78703 | 24.69452 | 36970 ft | 458 kts | 154° |
| 2026-04-26 17:29 | 40.73935 | 24.72478 | 36977 ft | 458 kts | 154° |
| 2026-04-26 17:29 | 40.67228 | 24.76738 | 36979 ft | 457 kts | 154° |
| 2026-04-26 17:30 | 40.61493 | 24.80357 | 36988 ft | 457 kts | 154° |
| 2026-04-26 17:30 | 40.55797 | 24.83945 | 36991 ft | 457 kts | 154° |
| 2026-04-26 17:31 | 40.50067 | 24.87547 | 36994 ft | 456 kts | 154° |
| 2026-04-26 17:31 | 40.44344 | 24.91138 | 36995 ft | 456 kts | 154° |
| 2026-04-26 17:32 | 40.38615 | 24.94727 | 37000 ft | 456 kts | 154° |
| 2026-04-26 17:32 | 40.32896 | 24.98304 | 36999 ft | 456 kts | 155° |
| 2026-04-26 17:33 | 40.27172 | 25.01878 | 36933 ft | 456 kts | 158° |
| 2026-04-26 17:34 | 40.18450 | 25.07307 | 37002 ft | 470 kts | 157° |
| 2026-04-26 17:34 | 40.12494 | 25.11006 | 36988 ft | 475 kts | 157° |
| 2026-04-26 17:35 | 40.06564 | 25.14687 | 36959 ft | 467 kts | 157° |
| 2026-04-26 17:35 | 40.00723 | 25.18303 | 36969 ft | 464 kts | 157° |
| 2026-04-26 17:36 | 39.94883 | 25.21911 | 36966 ft | 465 kts | 157° |
| 2026-04-26 17:36 | 39.89398 | 25.26392 | 36966 ft | 468 kts | 140° |
| 2026-04-26 17:37 | 39.84515 | 25.32005 | 36968 ft | 469 kts | 139° |
| 2026-04-26 17:37 | 39.79639 | 25.37667 | 36986 ft | 470 kts | 139° |
| 2026-04-26 17:38 | 39.72282 | 25.46050 | 36992 ft | 471 kts | 140° |
| 2026-04-26 17:38 | 39.67326 | 25.51644 | 37002 ft | 472 kts | 140° |
| 2026-04-26 17:39 | 39.62357 | 25.57243 | 37009 ft | 473 kts | 140° |
| 2026-04-26 17:39 | 39.57389 | 25.62832 | 37017 ft | 473 kts | 140° |
| 2026-04-26 17:40 | 39.53258 | 25.67473 | 37012 ft | 473 kts | 140° |
| 2026-04-26 17:40 | 39.47436 | 25.74000 | 37019 ft | 473 kts | 140° |
| 2026-04-26 17:41 | 39.42463 | 25.79564 | 37014 ft | 473 kts | 140° |
| 2026-04-26 17:41 | 39.37494 | 25.85113 | 37012 ft | 472 kts | 140° |
| 2026-04-26 17:42 | 39.32549 | 25.90626 | 37015 ft | 472 kts | 140° |
| 2026-04-26 17:42 | 39.27580 | 25.96135 | 37017 ft | 471 kts | 140° |
| 2026-04-26 17:43 | 39.22541 | 26.01555 | 37015 ft | 471 kts | 141° |
| 2026-04-26 17:43 | 39.17497 | 26.06936 | 37020 ft | 470 kts | 140° |
| 2026-04-26 17:44 | 39.12463 | 26.12317 | 37012 ft | 470 kts | 140° |
| 2026-04-26 17:44 | 39.07434 | 26.17694 | 37002 ft | 470 kts | 140° |
| 2026-04-26 17:45 | 39.02397 | 26.23072 | 36996 ft | 470 kts | 140° |
| 2026-04-26 17:45 | 38.97367 | 26.28432 | 36992 ft | 469 kts | 140° |
| 2026-04-26 17:46 | 38.92339 | 26.33780 | 36997 ft | 469 kts | 140° |
| 2026-04-26 17:46 | 38.87317 | 26.39114 | 36992 ft | 468 kts | 139° |
| 2026-04-26 17:47 | 38.85097 | 26.42079 | 36987 ft | 466 kts | 124° |
| 2026-04-26 17:47 | 38.83922 | 26.44444 | 37007 ft | 463 kts | 115° |
| 2026-04-26 17:47 | 38.82434 | 26.49522 | 36987 ft | 457 kts | 97° |
| 2026-04-26 17:47 | 38.81937 | 26.53528 | 37008 ft | 455 kts | 95° |
| 2026-04-26 17:48 | 38.81048 | 26.61569 | 36995 ft | 456 kts | 95° |
| 2026-04-26 17:48 | 38.80101 | 26.69613 | 36986 ft | 457 kts | 96° |
| 2026-04-26 17:49 | 38.79101 | 26.77661 | 36985 ft | 457 kts | 96° |
| 2026-04-26 17:49 | 38.78091 | 26.85714 | 36979 ft | 458 kts | 96° |
| 2026-04-26 17:50 | 38.76787 | 26.93704 | 36955 ft | 462 kts | 111° |
| 2026-04-26 17:50 | 38.75226 | 26.97304 | 36989 ft | 465 kts | 125° |
| 2026-04-26 17:50 | 38.73029 | 27.00335 | 36972 ft | 466 kts | 141° |
| 2026-04-26 17:51 | 38.67794 | 27.05251 | 36975 ft | 467 kts | 144° |
| 2026-04-26 17:51 | 38.62522 | 27.10097 | 36971 ft | 467 kts | 143° |
| 2026-04-26 17:52 | 38.57264 | 27.15002 | 36971 ft | 467 kts | 143° |
| 2026-04-26 17:52 | 38.52028 | 27.19932 | 36970 ft | 468 kts | 143° |
| 2026-04-26 17:53 | 38.46789 | 27.24869 | 36965 ft | 467 kts | 143° |
| 2026-04-26 17:54 | 38.38950 | 27.32240 | 36969 ft | 467 kts | 143° |
| 2026-04-26 17:54 | 38.33747 | 27.37118 | 36969 ft | 467 kts | 143° |
| 2026-04-26 17:55 | 38.28514 | 27.42013 | 36969 ft | 466 kts | 142° |
| 2026-04-26 17:55 | 38.23285 | 27.46896 | 36969 ft | 465 kts | 142° |
| 2026-04-26 17:56 | 38.18071 | 27.51757 | 36969 ft | 464 kts | 142° |
| 2026-04-26 17:57 | 38.07667 | 27.61430 | 36978 ft | 462 kts | 142° |
| 2026-04-26 17:57 | 38.02480 | 27.66240 | 36973 ft | 462 kts | 142° |
| 2026-04-26 17:58 | 37.92095 | 27.75844 | 36952 ft | 461 kts | 142° |
| 2026-04-26 17:59 | 37.84321 | 27.83010 | 36941 ft | 460 kts | 142° |
| 2026-04-26 17:59 | 37.79142 | 27.87774 | 36940 ft | 461 kts | 142° |
| 2026-04-26 18:00 | 37.73950 | 27.92541 | 36938 ft | 462 kts | 142° |
| 2026-04-26 18:00 | 37.68753 | 27.97304 | 36947 ft | 461 kts | 142° |
| 2026-04-26 18:01 | 37.63585 | 28.02034 | 36974 ft | 462 kts | 142° |
| 2026-04-26 18:01 | 37.58371 | 28.06796 | 36999 ft | 464 kts | 142° |
| 2026-04-26 18:02 | 37.54872 | 28.09986 | 37001 ft | 464 kts | 142° |
| 2026-04-26 18:02 | 37.47894 | 28.16339 | 37008 ft | 466 kts | 142° |
| 2026-04-26 18:03 | 37.43486 | 28.20344 | 37015 ft | 466 kts | 142° |
| 2026-04-26 18:03 | 37.38257 | 28.25087 | 37005 ft | 467 kts | 142° |
| 2026-04-26 18:04 | 37.32997 | 28.29851 | 37013 ft | 466 kts | 142° |
| 2026-04-26 18:05 | 37.25117 | 28.36970 | 37005 ft | 464 kts | 142° |
| 2026-04-26 18:05 | 37.19874 | 28.41697 | 37005 ft | 463 kts | 142° |
| 2026-04-26 18:06 | 37.14642 | 28.46406 | 37008 ft | 462 kts | 142° |
| 2026-04-26 18:06 | 37.09416 | 28.51101 | 36989 ft | 461 kts | 142° |
| 2026-04-26 18:07 | 37.04207 | 28.55773 | 36993 ft | 460 kts | 142° |
| 2026-04-26 18:07 | 36.99011 | 28.60425 | 36975 ft | 459 kts | 142° |
| 2026-04-26 18:08 | 36.93822 | 28.65063 | 36973 ft | 458 kts | 142° |
| 2026-04-26 18:08 | 36.88633 | 28.69693 | 36967 ft | 458 kts | 142° |
| 2026-04-26 18:09 | 36.83453 | 28.74308 | 36965 ft | 457 kts | 142° |
| 2026-04-26 18:09 | 36.78269 | 28.78918 | 36970 ft | 457 kts | 142° |
| 2026-04-26 18:10 | 36.73083 | 28.83523 | 36961 ft | 458 kts | 142° |
| 2026-04-26 18:10 | 36.67894 | 28.88121 | 36972 ft | 457 kts | 142° |
| 2026-04-26 18:11 | 36.62709 | 28.92709 | 36973 ft | 457 kts | 143° |
| 2026-04-26 18:11 | 36.57515 | 28.97296 | 36965 ft | 458 kts | 143° |
| 2026-04-26 18:12 | 36.52311 | 29.01886 | 36955 ft | 459 kts | 143° |
| 2026-04-26 18:12 | 36.47139 | 29.06439 | 36953 ft | 459 kts | 143° |
| 2026-04-26 18:13 | 36.41922 | 29.11024 | 36951 ft | 459 kts | 143° |
| 2026-04-26 18:13 | 36.36707 | 29.15601 | 36956 ft | 459 kts | 143° |
| 2026-04-26 18:14 | 36.31496 | 29.20165 | 36951 ft | 458 kts | 143° |
| 2026-04-26 18:14 | 36.26286 | 29.24722 | 36957 ft | 458 kts | 143° |
| 2026-04-26 18:15 | 36.21086 | 29.29264 | 36959 ft | 457 kts | 143° |
| 2026-04-26 18:15 | 36.15964 | 29.33927 | 36956 ft | 456 kts | 140° |
| 2026-04-26 18:16 | 36.11091 | 29.38944 | 36957 ft | 455 kts | 139° |
| 2026-04-26 18:16 | 36.03790 | 29.46446 | 36957 ft | 455 kts | 139° |
| 2026-04-26 18:17 | 35.98915 | 29.51400 | 36958 ft | 454 kts | 136° |
| 2026-04-26 18:17 | 35.95034 | 29.57451 | 36960 ft | 449 kts | 117° |
| 2026-04-26 18:18 | 35.92786 | 29.64592 | 36964 ft | 446 kts | 106° |
| 2026-04-26 18:18 | 35.90818 | 29.71848 | 36944 ft | 447 kts | 112° |
| 2026-04-26 18:19 | 35.88122 | 29.78770 | 36952 ft | 448 kts | 115° |
| 2026-04-26 18:19 | 35.85338 | 29.85594 | 36952 ft | 449 kts | 115° |
| 2026-04-26 18:20 | 35.82539 | 29.92539 | 36954 ft | 450 kts | 115° |
| 2026-04-26 18:20 | 35.80246 | 29.98293 | 36953 ft | 450 kts | 115° |
| 2026-04-26 18:21 | 35.77043 | 30.06358 | 36948 ft | 451 kts | 115° |
| 2026-04-26 18:21 | 35.74277 | 30.13310 | 36948 ft | 452 kts | 115° |
| 2026-04-26 18:22 | 35.71503 | 30.20264 | 36950 ft | 453 kts | 115° |
| 2026-04-26 18:22 | 35.68719 | 30.27225 | 36944 ft | 454 kts | 116° |
| 2026-04-26 18:23 | 35.65918 | 30.34214 | 36422 ft | 459 kts | 116° |
| 2026-04-26 18:23 | 35.64509 | 30.37723 | 35903 ft | 456 kts | 116° |
| 2026-04-26 18:23 | 35.63106 | 30.41217 | 35321 ft | 456 kts | 116° |
| 2026-04-26 18:24 | 35.61697 | 30.44717 | 34719 ft | 457 kts | 115° |
| 2026-04-26 18:24 | 35.60291 | 30.48210 | 34212 ft | 455 kts | 115° |
| 2026-04-26 18:24 | 35.58894 | 30.51676 | 33707 ft | 452 kts | 115° |
| 2026-04-26 18:24 | 35.57503 | 30.55120 | 33205 ft | 447 kts | 115° |
| 2026-04-26 18:25 | 35.56130 | 30.58519 | 32748 ft | 442 kts | 115° |
| 2026-04-26 18:25 | 35.54771 | 30.61880 | 32306 ft | 437 kts | 115° |
| 2026-04-26 18:25 | 35.53426 | 30.65202 | 31854 ft | 432 kts | 115° |
| 2026-04-26 18:25 | 35.52098 | 30.68480 | 31434 ft | 427 kts | 115° |
| 2026-04-26 18:26 | 35.50782 | 30.71723 | 31012 ft | 422 kts | 116° |
| 2026-04-26 18:26 | 35.49481 | 30.74927 | 30581 ft | 418 kts | 115° |
| 2026-04-26 18:26 | 35.48188 | 30.78108 | 30155 ft | 414 kts | 115° |
| 2026-04-26 18:26 | 35.46913 | 30.81243 | 29681 ft | 409 kts | 115° |
| 2026-04-26 18:27 | 35.45646 | 30.84356 | 29223 ft | 404 kts | 116° |
| 2026-04-26 18:27 | 35.44414 | 30.87378 | 28797 ft | 399 kts | 116° |
| 2026-04-26 18:27 | 35.43180 | 30.90403 | 28369 ft | 394 kts | 116° |
| 2026-04-26 18:27 | 35.41961 | 30.93390 | 27931 ft | 390 kts | 116° |
| 2026-04-26 18:28 | 35.40752 | 30.96348 | 27502 ft | 386 kts | 116° |
| 2026-04-26 18:28 | 35.39558 | 30.99267 | 27099 ft | 381 kts | 116° |
| 2026-04-26 18:28 | 35.38377 | 31.02153 | 26671 ft | 378 kts | 116° |
| 2026-04-26 18:28 | 35.37198 | 31.05031 | 26258 ft | 375 kts | 116° |
| 2026-04-26 18:29 | 35.36033 | 31.07871 | 25850 ft | 372 kts | 116° |
| 2026-04-26 18:29 | 35.34875 | 31.10692 | 25451 ft | 369 kts | 117° |
| 2026-04-26 18:29 | 35.33728 | 31.13485 | 25054 ft | 366 kts | 117° |
| 2026-04-26 18:29 | 35.32588 | 31.16258 | 24659 ft | 363 kts | 117° |
| 2026-04-26 18:30 | 35.31457 | 31.19008 | 24265 ft | 361 kts | 117° |
| 2026-04-26 18:30 | 35.30331 | 31.21742 | 23876 ft | 359 kts | 117° |
| 2026-04-26 18:30 | 35.29211 | 31.24459 | 23476 ft | 357 kts | 117° |
| 2026-04-26 18:30 | 35.28095 | 31.27163 | 23020 ft | 355 kts | 117° |
| 2026-04-26 18:31 | 35.26988 | 31.29845 | 22600 ft | 352 kts | 117° |
| 2026-04-26 18:31 | 35.25900 | 31.32478 | 22198 ft | 348 kts | 117° |
| 2026-04-26 18:31 | 35.24810 | 31.35114 | 21808 ft | 346 kts | 117° |
| 2026-04-26 18:31 | 35.23729 | 31.37726 | 21431 ft | 343 kts | 117° |
| 2026-04-26 18:32 | 35.22657 | 31.40314 | 21047 ft | 340 kts | 117° |
| 2026-04-26 18:32 | 35.21592 | 31.42883 | 20671 ft | 338 kts | 117° |
| 2026-04-26 18:32 | 35.20532 | 31.45439 | 20291 ft | 335 kts | 117° |
| 2026-04-26 18:32 | 35.19481 | 31.47973 | 19924 ft | 333 kts | 117° |
| 2026-04-26 18:33 | 35.18433 | 31.50493 | 19561 ft | 331 kts | 117° |
| 2026-04-26 18:33 | 35.17391 | 31.53001 | 19186 ft | 329 kts | 117° |
| 2026-04-26 18:33 | 35.16355 | 31.55491 | 18819 ft | 328 kts | 118° |
| 2026-04-26 18:33 | 35.15323 | 31.57971 | 18450 ft | 327 kts | 118° |
| 2026-04-26 18:34 | 35.14308 | 31.60406 | 18067 ft | 326 kts | 117° |
| 2026-04-26 18:34 | 35.13281 | 31.62868 | 17649 ft | 324 kts | 117° |
| 2026-04-26 18:34 | 35.12261 | 31.65312 | 17259 ft | 322 kts | 117° |
| 2026-04-26 18:34 | 35.11245 | 31.67746 | 16880 ft | 320 kts | 117° |
| 2026-04-26 18:35 | 35.10236 | 31.70158 | 16509 ft | 318 kts | 117° |
| 2026-04-26 18:35 | 35.09233 | 31.72558 | 16144 ft | 316 kts | 117° |
| 2026-04-26 18:35 | 35.08237 | 31.74939 | 15784 ft | 314 kts | 117° |
| 2026-04-26 18:35 | 35.07244 | 31.77310 | 15423 ft | 313 kts | 117° |
| 2026-04-26 18:36 | 35.06254 | 31.79671 | 15084 ft | 311 kts | 117° |
| 2026-04-26 18:36 | 35.05275 | 31.82005 | 14772 ft | 308 kts | 117° |
| 2026-04-26 18:36 | 35.04301 | 31.84326 | 14425 ft | 307 kts | 116° |
| 2026-04-26 18:36 | 35.03329 | 31.86643 | 14076 ft | 306 kts | 116° |
| 2026-04-26 18:37 | 35.02360 | 31.88949 | 13729 ft | 305 kts | 116° |
| 2026-04-26 18:37 | 35.01393 | 31.91249 | 13332 ft | 304 kts | 116° |
| 2026-04-26 18:37 | 35.00427 | 31.93545 | 12954 ft | 303 kts | 116° |
| 2026-04-26 18:37 | 34.99465 | 31.95830 | 12587 ft | 302 kts | 116° |
| 2026-04-26 18:38 | 34.98511 | 31.98094 | 12233 ft | 300 kts | 116° |
| 2026-04-26 18:38 | 34.97570 | 32.00326 | 11881 ft | 298 kts | 116° |
| 2026-04-26 18:38 | 34.96625 | 32.02567 | 11536 ft | 297 kts | 116° |
| 2026-04-26 18:38 | 34.95683 | 32.04799 | 11194 ft | 295 kts | 116° |
| 2026-04-26 18:39 | 34.94748 | 32.07015 | 10845 ft | 294 kts | 116° |
| 2026-04-26 18:39 | 34.93812 | 32.09226 | 10500 ft | 292 kts | 116° |
| 2026-04-26 18:39 | 34.92884 | 32.11418 | 10238 ft | 288 kts | 116° |
| 2026-04-26 18:39 | 34.91855 | 32.13465 | 10106 ft | 280 kts | 125° |
| 2026-04-26 18:40 | 34.90642 | 32.15290 | 9903 ft | 276 kts | 128° |
| 2026-04-26 18:40 | 34.89387 | 32.17058 | 9563 ft | 275 kts | 129° |
| 2026-04-26 18:40 | 34.88132 | 32.18815 | 9247 ft | 274 kts | 129° |
| 2026-04-26 18:40 | 34.86893 | 32.20565 | 8936 ft | 272 kts | 128° |
| 2026-04-26 18:41 | 34.85666 | 32.22309 | 8634 ft | 270 kts | 128° |
| 2026-04-26 18:41 | 34.84451 | 32.24049 | 8331 ft | 269 kts | 128° |
| 2026-04-26 18:41 | 34.83248 | 32.25777 | 8031 ft | 267 kts | 128° |
| 2026-04-26 18:41 | 34.82053 | 32.27501 | 7725 ft | 265 kts | 128° |
| 2026-04-26 18:42 | 34.80866 | 32.29213 | 7440 ft | 264 kts | 128° |
| 2026-04-26 18:42 | 34.79703 | 32.30893 | 7154 ft | 262 kts | 128° |
| 2026-04-26 18:42 | 34.78532 | 32.32585 | 6865 ft | 261 kts | 128° |
| 2026-04-26 18:42 | 34.77369 | 32.34267 | 6580 ft | 260 kts | 128° |
| 2026-04-26 18:43 | 34.76207 | 32.35945 | 6284 ft | 258 kts | 128° |
| 2026-04-26 18:43 | 34.75052 | 32.37613 | 5978 ft | 257 kts | 128° |
| 2026-04-26 18:43 | 34.73901 | 32.39276 | 5669 ft | 256 kts | 128° |
| 2026-04-26 18:43 | 34.72759 | 32.40925 | 5387 ft | 254 kts | 128° |
| 2026-04-26 18:44 | 34.71621 | 32.42568 | 5093 ft | 253 kts | 128° |
| 2026-04-26 18:44 | 34.70486 | 32.44204 | 4795 ft | 253 kts | 128° |
| 2026-04-26 18:44 | 34.69356 | 32.45833 | 4495 ft | 252 kts | 128° |
| 2026-04-26 18:44 | 34.68228 | 32.47457 | 4197 ft | 251 kts | 129° |
| 2026-04-26 18:45 | 34.67107 | 32.49071 | 3975 ft | 248 kts | 129° |
| 2026-04-26 18:45 | 34.65992 | 32.50677 | 3836 ft | 251 kts | 129° |
| 2026-04-26 18:45 | 34.64847 | 32.52323 | 3702 ft | 258 kts | 129° |
| 2026-04-26 18:45 | 34.63681 | 32.54000 | 3562 ft | 262 kts | 130° |
| 2026-04-26 18:46 | 34.62513 | 32.55680 | 3403 ft | 257 kts | 130° |
| 2026-04-26 18:46 | 34.61373 | 32.57316 | 3247 ft | 250 kts | 130° |
| 2026-04-26 18:46 | 34.60264 | 32.58908 | 3099 ft | 244 kts | 130° |
| 2026-04-26 18:46 | 34.59185 | 32.60459 | 2967 ft | 237 kts | 129° |
| 2026-04-26 18:47 | 34.58316 | 32.62117 | 2856 ft | 230 kts | 112° |
| 2026-04-26 18:47 | 34.58018 | 32.63979 | 2777 ft | 222 kts | 89° |
| 2026-04-26 18:47 | 34.58319 | 32.65748 | 2706 ft | 209 kts | 67° |
| 2026-04-26 18:47 | 34.59067 | 32.67184 | 2613 ft | 195 kts | 47° |
| 2026-04-26 18:48 | 34.60053 | 32.68223 | 2526 ft | 182 kts | 32° |
| 2026-04-26 18:48 | 34.61168 | 32.68870 | 2448 ft | 176 kts | 16° |
| 2026-04-26 18:48 | 34.62348 | 32.69127 | 2398 ft | 175 kts | 1° |
| 2026-04-26 18:48 | 34.63570 | 32.68971 | 2339 ft | 176 kts | 345° |
| 2026-04-26 18:49 | 34.64680 | 32.68423 | 2261 ft | 174 kts | 329° |
| 2026-04-26 18:49 | 34.65624 | 32.67522 | 2155 ft | 167 kts | 311° |
| 2026-04-26 18:49 | 34.66184 | 32.66346 | 2107 ft | 160 kts | 294° |
| 2026-04-26 18:49 | 34.66686 | 32.65134 | 2112 ft | 161 kts | 295° |
| 2026-04-26 18:50 | 34.67132 | 32.63930 | 2108 ft | 155 kts | 291° |
| 2026-04-26 18:50 | 34.67518 | 32.62728 | 2093 ft | 150 kts | 290° |
| 2026-04-26 18:50 | 34.67882 | 32.61537 | 2069 ft | 152 kts | 289° |
| 2026-04-26 18:50 | 34.68124 | 32.60734 | 1963 ft | 153 kts | 289° |
| 2026-04-26 18:51 | 34.68490 | 32.59517 | 1774 ft | 153 kts | 290° |
| 2026-04-26 18:51 | 34.68853 | 32.58315 | 1568 ft | 149 kts | 289° |
| 2026-04-26 18:51 | 34.69205 | 32.57146 | 1371 ft | 145 kts | 289° |
| 2026-04-26 18:51 | 34.69555 | 32.55971 | 1187 ft | 152 kts | 288° |
| 2026-04-26 18:52 | 34.69875 | 32.54722 | 1010 ft | 158 kts | 287° |
| 2026-04-26 18:52 | 34.70262 | 32.53457 | 741 ft | 162 kts | 293° |
| 2026-04-26 18:52 | 34.70678 | 32.52228 | 496 ft | 152 kts | 292° |
| 2026-04-26 18:52 | 34.71024 | 32.51062 | 281 ft | 141 kts | 292° |
| 2026-04-26 18:53 | 34.71365 | 32.49964 | 98 ft | 138 kts | 291° |
| 2026-04-26 18:53 | 34.71676 | 32.48940 | 45 ft | 113 kts | 289° |
| 2026-04-26 18:53 | 34.71896 | 32.48218 | 45 ft | 63 kts | 290° |
| 2026-04-26 18:53 | 34.72022 | 32.47802 | 45 ft | 44 kts | 290° |
| 2026-04-26 18:54 | 34.72064 | 32.47636 | 44 ft | 12 kts | 276° |
| 2026-04-26 18:54 | 34.72085 | 32.47602 | 44 ft | 4 kts | 32° |
| 2026-04-26 18:54 | 34.72079 | 32.47637 | 42 ft | 6 kts | 114° |
| 2026-04-26 18:54 | 34.72058 | 32.47699 | 46 ft | 11 kts | 110° |
| 2026-04-26 18:55 | 34.72025 | 32.47807 | 45 ft | 16 kts | 110° |
| 2026-04-26 18:55 | 34.71981 | 32.47955 | 44 ft | 21 kts | 108° |
| 2026-04-26 18:55 | 34.71931 | 32.48119 | 46 ft | 21 kts | 111° |
| 2026-04-26 18:55 | 34.71880 | 32.48280 | 45 ft | 18 kts | 110° |
| 2026-04-26 18:56 | 34.71845 | 32.48392 | 42 ft | 10 kts | 115° |
| 2026-04-26 18:56 | 34.71783 | 32.48409 | 45 ft | 10 kts | 198° |
| 2026-04-26 18:56 | 34.71718 | 32.48382 | 45 ft | 10 kts | 200° |
| 2026-04-26 18:56 | 34.71655 | 32.48354 | 45 ft | 9 kts | 201° |
| 2026-04-26 18:57 | 34.71594 | 32.48325 | 45 ft | 9 kts | 200° |
| 2026-04-26 18:57 | 34.71552 | 32.48307 | 45 ft | 10 kts | 200° |
| 2026-04-26 18:57 | 34.71460 | 32.48266 | 45 ft | 11 kts | 200° |
| 2026-04-26 18:57 | 34.71401 | 32.48297 | 45 ft | 10 kts | 112° |
| 2026-04-26 18:58 | 34.71376 | 32.48378 | 45 ft | 10 kts | 110° |
| 2026-04-26 18:58 | 34.71352 | 32.48457 | 42 ft | 10 kts | 110° |
| 2026-04-26 18:58 | 34.71355 | 32.48535 | 45 ft | 9 kts | 67° |
| 2026-04-26 18:58 | 34.71382 | 32.48606 | 44 ft | 9 kts | 64° |
| 2026-04-26 18:59 | 34.71402 | 32.48675 | 45 ft | 8 kts | 105° |
| 2026-04-26 18:59 | 34.71358 | 32.48699 | 45 ft | 7 kts | 159° |
| 2026-04-26 18:59 | 34.71326 | 32.48716 | 45 ft | 1 kts | 155° |